createdAt,value
2019-05-23T00:00:32.609Z,13.95
2019-05-23T00:05:39.666Z,13.80
2019-05-23T00:10:43.595Z,14.40
2019-05-23T00:15:47.521Z,12.37
2019-05-23T00:20:51.994Z,14.60
2019-05-23T00:25:55.457Z,12.37
2019-05-23T00:30:59.695Z,13.00
2019-05-23T00:36:02.164Z,13.72
2019-05-23T00:41:05.086Z,15.20
2019-05-23T00:46:08.525Z,12.50
2019-05-23T00:51:11.601Z,12.57
2019-05-23T00:56:14.528Z,14.33
2019-05-23T01:01:18.416Z,13.00
2019-05-23T01:06:21.089Z,14.50
2019-05-23T01:11:23.906Z,17.57
2019-05-23T01:16:28.818Z,12.87
2019-05-23T01:21:32.804Z,17.50
2019-05-23T01:26:35.460Z,13.03
2019-05-23T01:31:39.475Z,13.37
2019-05-23T01:36:43.578Z,13.83
2019-05-23T01:41:46.627Z,13.07
2019-05-23T01:46:50.320Z,14.43
2019-05-23T01:51:52.599Z,13.10
2019-05-23T01:56:55.251Z,13.33
2019-05-23T02:01:57.516Z,13.25
2019-05-23T02:07:00.324Z,14.93
2019-05-23T02:12:05.422Z,14.40
2019-05-23T02:17:08.845Z,15.93
2019-05-23T02:22:12.176Z,16.23
2019-05-23T02:27:14.866Z,17.77
2019-05-23T02:32:17.496Z,15.13
2019-05-23T02:37:22.034Z,17.20
2019-05-23T02:42:41.169Z,14.13
2019-05-23T02:47:50.769Z,14.07
2019-05-23T02:52:54.163Z,13.40
2019-05-23T02:57:58.569Z,13.27
2019-05-23T03:03:02.972Z,13.73
2019-05-23T03:08:05.785Z,14.87
2019-05-23T03:13:10.394Z,16.73
2019-05-23T03:18:12.856Z,14.00
2019-05-23T03:23:15.398Z,16.77
2019-05-23T03:28:19.020Z,14.23
2019-05-23T03:33:23.411Z,13.73
2019-05-23T03:38:27.311Z,13.50
2019-05-23T03:43:30.025Z,18.27
2019-05-23T03:48:32.668Z,14.73
2019-05-23T03:53:35.720Z,14.53
2019-05-23T03:58:38.704Z,15.57
2019-05-23T04:03:42.618Z,13.47
2019-05-23T04:08:45.144Z,13.60
2019-05-23T04:13:47.591Z,13.07
2019-05-23T04:18:50.319Z,13.73
2019-05-23T04:23:53.020Z,13.47
2019-05-23T04:28:55.561Z,15.47
2019-05-23T04:33:58.508Z,12.90
2019-05-23T04:39:00.851Z,17.13
2019-05-23T04:44:04.105Z,14.80
2019-05-23T04:49:06.451Z,17.30
2019-05-23T04:54:08.884Z,16.10
2019-05-23T04:59:11.211Z,14.83
2019-05-23T05:04:13.510Z,15.57
2019-05-23T05:09:17.463Z,13.80
2019-05-23T05:14:19.915Z,13.43
2019-05-23T05:19:22.884Z,13.53
2019-05-23T05:24:25.549Z,15.20
2019-05-23T05:29:28.202Z,13.80
2019-05-23T05:34:30.644Z,12.73
2019-05-23T05:39:33.970Z,15.30
2019-05-23T05:44:37.199Z,15.53
2019-05-23T05:49:42.397Z,13.15
2019-05-23T05:54:44.877Z,13.33
2019-05-23T05:59:47.174Z,12.47
2019-05-23T06:04:49.535Z,11.30
2019-05-23T06:09:53.528Z,14.70
2019-05-23T06:14:57.040Z,10.75
2019-05-23T06:19:59.343Z,10.20
2019-05-23T06:25:02.004Z,10.50
2019-05-23T06:30:07.844Z,8.52
2019-05-23T06:35:10.290Z,13.50
2019-05-23T06:40:13.233Z,8.00
2019-05-23T06:45:15.695Z,12.93
2019-05-23T06:50:20.025Z,8.53
2019-05-23T06:55:22.344Z,7.80
2019-05-23T07:00:26.309Z,8.30
2019-05-23T07:05:30.276Z,7.80
2019-05-23T07:10:32.654Z,8.40
2019-05-23T07:15:35.074Z,8.23
2019-05-23T07:20:37.351Z,8.70
2019-05-23T07:25:39.710Z,8.53
2019-05-23T07:30:42.143Z,10.18
2019-05-23T07:35:44.428Z,10.53
2019-05-23T07:40:47.150Z,8.58
2019-05-23T07:45:51.055Z,7.97
2019-05-23T07:50:53.328Z,9.68
2019-05-23T07:56:00.273Z,9.25
2019-05-23T08:01:04.166Z,7.30
2019-05-23T08:06:06.531Z,8.43
2019-05-23T08:11:08.805Z,7.17
2019-05-23T08:16:11.354Z,9.18
2019-05-23T08:21:13.713Z,10.48
2019-05-23T08:26:17.639Z,8.50
2019-05-23T08:31:19.905Z,7.72
2019-05-23T08:36:22.748Z,8.73
2019-05-23T08:41:25.535Z,6.70
2019-05-23T08:46:28.168Z,6.73
2019-05-23T08:51:30.590Z,6.37
2019-05-23T08:56:33.113Z,6.33
2019-05-23T09:01:36.048Z,7.05
2019-05-23T09:06:38.461Z,7.20
2019-05-23T09:11:42.044Z,5.95
2019-05-23T09:16:44.417Z,7.85
2019-05-23T09:21:47.472Z,8.58
2019-05-23T09:26:50.240Z,7.90
2019-05-23T09:31:52.560Z,12.17
2019-05-23T09:37:00.009Z,9.03
2019-05-23T09:42:00.500Z,8.30
2019-05-23T09:47:02.877Z,7.65
2019-05-23T09:52:05.986Z,7.05
2019-05-23T09:57:08.759Z,6.53
2019-05-23T10:02:11.750Z,7.92
2019-05-23T10:07:14.266Z,9.23
2019-05-23T10:12:16.544Z,11.10
2019-05-23T10:17:19.048Z,6.90
2019-05-23T10:22:21.376Z,5.83
2019-05-23T10:27:23.803Z,10.32
2019-05-23T10:32:26.466Z,8.40
2019-05-23T10:37:29.099Z,10.35
2019-05-23T10:42:31.524Z,8.20
2019-05-23T10:47:34.026Z,6.03
2019-05-23T10:52:36.370Z,5.47
2019-05-23T10:57:38.692Z,5.70
2019-05-23T11:02:41.586Z,7.57
2019-05-23T11:07:44.195Z,5.58
2019-05-23T11:12:46.476Z,11.48
2019-05-23T11:17:53.121Z,7.83
2019-05-23T11:22:53.114Z,9.08
2019-05-23T11:27:55.580Z,9.58
2019-05-23T11:32:57.919Z,6.30
2019-05-23T11:38:00.294Z,6.85
2019-05-23T11:43:02.694Z,5.08
2019-05-23T11:48:05.624Z,5.67
2019-05-23T11:53:08.004Z,7.53
2019-05-23T11:58:10.674Z,9.28
2019-05-23T12:03:13.290Z,7.50
2019-05-23T12:08:15.727Z,5.30
2019-05-23T12:13:18.383Z,6.30
2019-05-23T12:18:20.737Z,8.23
2019-05-23T12:23:23.058Z,8.30
2019-05-23T12:28:25.792Z,9.48
2019-05-23T12:33:28.171Z,7.45
2019-05-23T12:38:30.458Z,6.60
2019-05-23T12:43:32.825Z,9.60
2019-05-23T12:48:36.849Z,8.53
2019-05-23T12:53:39.233Z,7.78
2019-05-23T12:58:42.765Z,6.33
2019-05-23T13:03:45.268Z,7.75
2019-05-23T13:08:47.531Z,8.23
2019-05-23T13:13:49.796Z,7.53
2019-05-23T13:18:52.109Z,7.85
2019-05-23T13:23:54.394Z,7.00
2019-05-23T13:28:56.733Z,5.58
2019-05-23T13:33:59.050Z,8.08
2019-05-23T13:39:01.446Z,6.85
2019-05-23T13:44:03.821Z,5.20
2019-05-23T13:49:06.369Z,9.78
2019-05-23T13:54:08.762Z,7.20
2019-05-23T13:59:11.132Z,4.53
2019-05-23T14:04:13.866Z,6.03
2019-05-23T14:09:17.829Z,8.55
2019-05-23T14:14:20.123Z,6.22
2019-05-23T14:19:22.415Z,7.42
2019-05-23T14:24:24.815Z,6.10
2019-05-23T14:29:28.224Z,6.92
2019-05-23T14:34:31.170Z,9.45
2019-05-23T14:39:35.178Z,6.00
2019-05-23T14:44:37.888Z,6.08
2019-05-23T14:49:57.061Z,5.80
2019-05-23T15:00:11.545Z,7.03
2019-05-23T15:05:14.171Z,8.25
2019-05-23T15:10:16.528Z,6.75
2019-05-23T15:15:19.173Z,7.37
2019-05-23T15:20:21.617Z,7.80
2019-05-23T15:25:24.046Z,6.30
2019-05-23T15:30:26.403Z,5.85
2019-05-23T15:35:28.849Z,7.75
2019-05-23T15:40:31.782Z,9.45
2019-05-23T15:45:34.082Z,6.70
2019-05-23T15:50:38.093Z,8.33
2019-05-23T15:55:57.416Z,7.33
2019-05-23T16:01:03.866Z,5.40
2019-05-23T16:06:07.906Z,17.02
2019-05-23T16:11:10.743Z,8.45
2019-05-23T16:16:13.196Z,6.72
2019-05-23T16:21:16.985Z,6.85
2019-05-23T16:26:31.087Z,5.92
2019-05-23T16:31:31.286Z,7.47
2019-05-23T16:36:33.697Z,6.03
2019-05-23T16:41:36.168Z,9.68
2019-05-23T16:46:38.684Z,7.45
2019-05-23T16:51:41.040Z,7.57
2019-05-23T16:56:44.983Z,13.27
2019-05-23T17:01:57.974Z,8.43
2019-05-23T17:06:57.600Z,8.37
2019-05-23T17:12:01.834Z,5.15
2019-05-23T17:17:48.913Z,5.55
2019-05-23T17:22:38.792Z,3.92
2019-05-23T17:27:58.827Z,4.87
2019-05-23T17:33:01.345Z,6.62
2019-05-23T17:38:03.947Z,5.12
2019-05-23T17:43:06.291Z,5.72
2019-05-23T17:48:08.819Z,13.88
2019-05-23T17:53:11.177Z,7.92
2019-05-23T17:58:13.541Z,4.42
2019-05-23T18:03:16.513Z,5.42
2019-05-23T18:08:19.454Z,5.58
2019-05-23T18:13:22.422Z,5.28
2019-05-23T18:18:25.048Z,4.17
2019-05-23T18:23:27.720Z,5.47
2019-05-23T18:28:30.612Z,4.97
2019-05-23T18:33:34.069Z,3.83
2019-05-23T18:38:36.501Z,5.97
2019-05-23T18:43:39.226Z,9.03
2019-05-23T18:48:41.735Z,4.90
2019-05-23T18:53:44.529Z,4.30
2019-05-23T18:58:47.445Z,6.65
2019-05-23T19:03:49.883Z,8.10
2019-05-23T19:08:52.739Z,6.87
2019-05-23T19:13:55.197Z,10.63
2019-05-23T19:18:57.488Z,8.20
2019-05-23T19:23:59.795Z,6.58
2019-05-23T19:29:02.236Z,7.65
2019-05-23T19:34:05.731Z,8.40
2019-05-23T19:39:08.273Z,7.78
2019-05-23T19:44:10.632Z,7.70
2019-05-23T19:49:13.558Z,8.05
2019-05-23T19:54:16.501Z,7.37
2019-05-23T19:59:20.918Z,6.40
2019-05-23T20:04:28.557Z,9.34
2019-05-23T20:09:29.245Z,7.78
2019-05-23T20:14:31.544Z,8.70
2019-05-23T20:19:33.955Z,5.28
2019-05-23T20:24:36.338Z,6.65
2019-05-23T20:29:38.645Z,6.12
2019-05-23T20:34:41.096Z,8.10
2019-05-23T20:39:43.690Z,7.50
2019-05-23T20:44:46.124Z,8.73
2019-05-23T20:49:48.571Z,6.35
2019-05-23T20:54:51.098Z,7.42
2019-05-23T20:59:53.505Z,5.50
2019-05-23T21:04:55.918Z,8.33
2019-05-23T21:09:58.224Z,9.55
2019-05-23T21:15:00.588Z,6.33
2019-05-23T21:20:03.146Z,6.15
2019-05-23T21:25:05.593Z,6.33
2019-05-23T21:30:08.249Z,5.62
2019-05-23T21:35:10.621Z,7.40
2019-05-23T21:40:14.535Z,8.15
2019-05-23T21:45:16.997Z,7.02
2019-05-23T21:50:19.240Z,8.63
2019-05-23T21:55:23.063Z,6.13
2019-05-23T22:00:28.512Z,8.50
2019-05-23T22:05:30.955Z,6.67
2019-05-23T22:10:33.253Z,5.85
2019-05-23T22:15:35.942Z,6.03
2019-05-23T22:20:38.213Z,7.22
2019-05-23T22:25:40.490Z,7.25
2019-05-23T22:30:42.840Z,9.23
2019-05-23T22:35:45.103Z,6.60
2019-05-23T22:40:47.456Z,9.05
2019-05-23T22:45:49.775Z,9.77
2019-05-23T22:50:52.058Z,11.97
2019-05-23T22:55:54.387Z,12.13
2019-05-23T23:00:56.792Z,6.53
2019-05-23T23:05:59.139Z,7.97
2019-05-23T23:11:01.836Z,7.07
2019-05-23T23:16:04.454Z,6.20
2019-05-23T23:21:06.754Z,10.17
2019-05-23T23:26:09.035Z,8.23
2019-05-23T23:31:11.458Z,14.44
2019-05-23T23:36:13.728Z,6.83
2019-05-23T23:41:15.989Z,6.93
2019-05-23T23:46:36.810Z,6.30
2019-05-23T23:51:57.743Z,7.37
2019-05-23T23:57:18.077Z,7.43
